Time;durP1;ratioP1;P1;durP2;ratioP2;P2;SDS_P1;SDS_P2;PMS_P1;PMS_P2;Temp;Humidity;BMP_temperature;BMP_pressure;BME280_temperature;BME280_humidity;BME280_pressure;Samples;Min_cycle;Max_cycle;Signal;HPM_P1;HPM_P2
2021/09/21 00:01:36;;;;;;;4.20;3.90;;;;;;;14.70;68.99;101745.50;5068629;28;20481;-43
2021/09/21 00:04:02;;;;;;;4.40;4.00;;;;;;;14.70;69.17;101746.38;5066707;28;20029;-43
2021/09/21 00:06:27;;;;;;;4.70;4.30;;;;;;;14.70;69.09;101749.03;5068633;28;20021;-43
2021/09/21 00:08:53;;;;;;;4.97;4.47;;;;;;;14.70;69.08;101754.34;5068517;28;20363;-44
2021/09/21 00:11:19;;;;;;;4.35;3.95;;;;;;;14.68;69.13;101737.56;5068795;28;20024;-46
2021/09/21 00:13:45;;;;;;;4.97;4.53;;;;;;;14.70;69.11;101746.38;5065419;28;20043;-43
2021/09/21 00:16:11;;;;;;;5.78;5.10;;;;;;;14.69;69.15;101741.97;5068916;28;20035;-42
2021/09/21 00:18:37;;;;;;;4.63;4.15;;;;;;;14.69;69.08;101749.94;5069510;28;20021;-43
2021/09/21 00:21:04;;;;;;;4.63;4.05;;;;;;;14.69;69.00;101743.75;5068312;28;20028;-43
2021/09/21 00:23:30;;;;;;;4.50;4.00;;;;;;;14.69;69.09;101749.06;5067203;28;20119;-44
2021/09/21 00:25:56;;;;;;;4.20;3.83;;;;;;;14.70;69.03;101754.34;5066085;28;20612;-43
2021/09/21 00:28:22;;;;;;;4.45;4.05;;;;;;;14.69;69.08;101754.38;5068563;28;20107;-44
2021/09/21 00:30:50;;;;;;;4.45;4.05;;;;;;;14.70;69.04;101757.00;5070587;28;20029;-43
2021/09/21 00:33:18;;;;;;;4.60;4.20;;;;;;;14.69;69.11;101755.25;5071021;28;20528;-44
2021/09/21 00:35:45;;;;;;;4.65;4.25;;;;;;;14.69;68.99;101755.25;5073224;28;20090;-44
2021/09/21 00:38:13;;;;;;;5.10;4.30;;;;;;;14.67;69.18;101751.72;5076263;28;20105;-45
2021/09/21 00:40:38;;;;;;;4.75;4.25;;;;;;;14.68;69.17;101745.53;5039633;28;20024;-46
2021/09/21 00:43:05;;;;;;;4.97;4.57;;;;;;;14.68;69.12;101744.66;5070988;28;20367;-49
2021/09/21 00:45:31;;;;;;;4.75;4.18;;;;;;;14.68;69.11;101750.84;5071368;28;20031;-43
2021/09/21 00:47:57;;;;;;;5.80;4.65;;;;;;;14.67;69.18;101751.72;5076414;28;20434;-45
2021/09/21 00:50:25;;;;;;;4.78;4.03;;;;;;;14.67;69.09;101767.66;5054156;28;20517;-43
2021/09/21 00:52:52;;;;;;;5.35;4.53;;;;;;;14.68;69.11;101757.91;5076604;28;20038;-44
2021/09/21 00:55:18;;;;;;;4.10;3.78;;;;;;;14.69;69.07;101760.56;5057288;28;20051;-43
2021/09/21 00:57:45;;;;;;;4.55;4.15;;;;;;;14.67;69.13;101751.72;5052078;28;20044;-43
2021/09/21 01:00:13;;;;;;;6.78;4.57;;;;;;;14.69;69.02;101754.38;5075106;28;20048;-43
2021/09/21 01:02:39;;;;;;;5.05;3.75;;;;;;;14.69;69.18;101752.59;5073051;28;20028;-43
2021/09/21 01:05:05;;;;;;;4.97;4.45;;;;;;;14.69;69.08;101755.25;5075235;28;20408;-44
2021/09/21 01:07:31;;;;;;;4.65;4.15;;;;;;;14.68;69.02;101757.91;5073885;28;20032;-44
2021/09/21 01:10:05;;;;;;;4.70;4.22;;;;;;;14.67;69.04;101754.38;5071992;28;20020;-45
2021/09/21 01:12:31;;;;;;;4.65;4.22;;;;;;;14.67;69.10;101757.03;5069941;28;20028;-44
2021/09/21 01:14:57;;;;;;;5.57;4.30;;;;;;;14.69;69.00;101755.25;5070691;28;20024;-43
2021/09/21 01:17:23;;;;;;;5.43;4.30;;;;;;;14.69;69.06;101762.31;5070290;28;20035;-47
2021/09/21 01:19:49;;;;;;;5.50;4.22;;;;;;;14.68;69.07;101756.16;5059188;28;20028;-43
2021/09/21 01:22:15;;;;;;;5.00;4.50;;;;;;;14.67;69.09;101754.38;5072543;28;20020;-44
2021/09/21 01:24:41;;;;;;;4.53;4.13;;;;;;;14.67;69.08;101750.84;5076643;28;20398;-45
2021/09/21 01:27:07;;;;;;;5.03;4.50;;;;;;;14.68;68.97;101756.16;5070660;28;20067;-43
2021/09/21 01:29:33;;;;;;;4.50;4.10;;;;;;;14.67;69.05;101757.03;5068983;28;20027;-44
2021/09/21 01:31:59;;;;;;;5.20;4.25;;;;;;;14.68;69.14;101750.84;5071719;28;20028;-46
2021/09/21 01:34:25;;;;;;;4.68;4.18;;;;;;;14.67;69.15;101750.84;5056186;28;20036;-46
2021/09/21 01:36:51;;;;;;;4.53;4.13;;;;;;;14.65;69.11;101748.22;5071413;28;20050;-44
2021/09/21 01:39:17;;;;;;;4.28;3.88;;;;;;;14.65;69.18;101749.97;5054359;28;20040;-46
2021/09/21 01:41:44;;;;;;;4.95;4.45;;;;;;;14.65;69.08;101747.31;5072351;28;20028;-45
2021/09/21 01:44:10;;;;;;;4.40;4.00;;;;;;;14.64;69.21;101746.44;5069908;28;20036;-44
2021/09/21 01:46:36;;;;;;;5.00;4.53;;;;;;;14.68;69.07;101747.28;5069691;28;20024;-43
2021/09/21 01:49:02;;;;;;;4.93;4.43;;;;;;;14.65;69.08;101744.66;5056181;28;20024;-44
2021/09/21 01:51:32;;;;;;;4.57;4.15;;;;;;;14.66;68.92;101743.75;5074293;28;20521;-44
2021/09/21 01:59:10;;;;;;;4.95;4.40;;;;;;;14.66;69.05;101749.06;5067140;28;20551;-45
2021/09/21 02:01:36;;;;;;;5.15;4.65;;;;;;;14.65;68.93;101745.56;5037534;28;20040;-45
2021/09/21 02:04:07;;;;;;;4.22;3.83;;;;;;;14.66;69.05;101755.28;5067642;28;20470;-44
2021/09/21 02:06:40;;;;;;;4.22;3.85;;;;;;;14.63;69.14;101753.53;5052852;28;20077;-44
2021/09/21 02:09:08;;;;;;;4.68;4.28;;;;;;;14.66;69.05;101755.28;5069866;28;20020;-44
2021/09/21 02:11:35;;;;;;;5.90;5.18;;;;;;;14.63;69.12;101756.19;5071435;28;20028;-44
2021/09/21 02:14:04;;;;;;;4.78;4.30;;;;;;;14.66;69.17;101770.31;5072293;28;20052;-45
2021/09/21 02:16:31;;;;;;;5.25;4.85;;;;;;;14.65;68.95;101752.63;5065974;28;20519;-44
2021/09/21 02:18:58;;;;;;;5.88;4.10;;;;;;;14.64;69.08;101757.06;5054372;28;20104;-43
2021/09/21 02:21:23;;;;;;;4.28;3.88;;;;;;;14.66;68.88;101760.59;5050140;28;20474;-44
2021/09/21 02:23:50;;;;;;;4.40;3.95;;;;;;;14.63;69.09;101766.81;5069414;28;20035;-44
2021/09/21 02:26:16;;;;;;;4.60;4.20;;;;;;;14.65;69.06;101768.56;5068521;28;20047;-46
2021/09/21 02:28:42;;;;;;;5.57;4.50;;;;;;;14.65;68.97;101763.25;5068644;28;20044;-43
2021/09/21 02:31:07;;;;;;;4.38;3.97;;;;;;;14.62;68.92;101766.81;5050773;28;20078;-44
2021/09/21 02:33:33;;;;;;;4.10;3.70;;;;;;;14.64;69.05;101770.31;5067871;28;20029;-47
2021/09/21 02:35:59;;;;;;;6.03;4.40;;;;;;;14.63;69.08;101760.59;5072583;28;20103;-44
2021/09/21 02:38:25;;;;;;;5.07;4.05;;;;;;;14.62;69.04;101772.13;5065886;28;20028;-44
2021/09/21 02:40:52;;;;;;;4.28;3.88;;;;;;;14.63;68.96;101772.13;5073332;28;20028;-45
2021/09/21 02:43:18;;;;;;;5.18;4.30;;;;;;;14.63;68.98;101766.81;5066986;28;20491;-43
2021/09/21 02:45:44;;;;;;;4.95;4.40;;;;;;;14.62;69.08;101774.78;5071103;28;20039;-44
2021/09/21 02:48:10;;;;;;;5.15;4.20;;;;;;;14.63;69.02;101771.22;5070276;28;20028;-43
2021/09/21 02:50:36;;;;;;;5.60;4.75;;;;;;;14.62;69.11;101769.47;5070530;28;20024;-46
2021/09/21 02:53:03;;;;;;;4.55;4.15;;;;;;;14.61;69.14;101778.34;5069743;28;20103;-45
2021/09/21 02:55:28;;;;;;;5.78;4.47;;;;;;;14.63;69.00;101771.22;5065983;28;20038;-44
2021/09/21 02:57:54;;;;;;;5.47;4.57;;;;;;;14.61;69.23;101773.03;5069746;28;20035;-44
2021/09/21 03:00:25;;;;;;;4.35;3.95;;;;;;;14.61;69.02;101775.69;5070782;28;20029;-45
2021/09/21 03:02:53;;;;;;;4.80;3.90;;;;;;;14.60;68.96;101766.84;5070082;28;20028;-45
2021/09/21 03:05:25;;;;;;;4.70;4.20;;;;;;;14.59;69.08;101773.03;5066492;28;20020;-45
2021/09/21 03:08:26;;;;;;;6.32;4.60;;;;;;;14.60;69.04;101776.56;5058173;28;20021;-45
2021/09/21 03:17:06;;;;;;;4.32;3.92;;;;;;;14.56;69.17;101775.72;5074104;28;20112;-45
2021/09/21 03:18:58;;;;;;;4.10;3.70;;;;;;;14.54;69.19;101787.25;5069134;28;20094;-45
2021/09/21 03:21:24;;;;;;;5.25;4.85;;;;;;;14.57;69.28;101787.22;5069208;28;20478;-45
2021/09/21 03:23:50;;;;;;;5.68;4.45;;;;;;;14.55;69.23;101789.00;5063553;28;20028;-45
2021/09/21 03:26:16;;;;;;;6.40;4.93;;;;;;;14.56;69.27;101798.72;5069049;28;20027;-45
2021/09/21 03:28:42;;;;;;;4.78;4.00;;;;;;;14.54;69.20;101793.41;5070073;28;20027;-45
2021/09/21 03:31:08;;;;;;;4.78;4.10;;;;;;;14.55;69.16;101796.97;5073006;28;20028;-44
2021/09/21 03:33:34;;;;;;;4.88;3.85;;;;;;;14.54;69.14;101800.53;5061335;28;20032;-45
2021/09/21 03:36:00;;;;;;;4.38;3.97;;;;;;;14.55;69.32;101796.97;5068309;28;20073;-45
2021/09/21 03:38:26;;;;;;;4.50;3.78;;;;;;;14.54;69.30;101805.81;5068168;28;20430;-45
2021/09/21 03:40:52;;;;;;;5.50;4.93;;;;;;;14.54;69.09;101804.03;5069770;28;20028;-45
2021/09/21 03:43:17;;;;;;;5.35;4.45;;;;;;;14.50;69.36;101804.94;5065444;28;20116;-45
2021/09/21 03:45:43;;;;;;;4.80;4.30;;;;;;;14.50;69.45;101811.16;5067173;28;20020;-45
2021/09/21 03:48:09;;;;;;;4.65;4.20;;;;;;;14.50;69.30;101808.50;5052965;28;20031;-44
2021/09/21 03:50:35;;;;;;;4.85;4.32;;;;;;;14.51;69.24;101820.00;5069683;28;20023;-45
2021/09/21 03:53:03;;;;;;;4.25;3.95;;;;;;;14.54;69.07;101819.09;5064100;28;20020;-44
2021/09/21 03:55:29;;;;;;;4.68;4.18;;;;;;;14.52;69.37;101807.59;5068935;28;20021;-45
2021/09/21 03:57:54;;;;;;;4.65;4.20;;;;;;;14.50;69.42;101807.59;5067604;28;20042;-45
2021/09/21 04:00:20;;;;;;;4.75;4.00;;;;;;;14.53;69.34;101817.31;5036909;28;20518;-44
2021/09/21 04:02:46;;;;;;;5.10;3.95;;;;;;;14.51;69.29;101809.38;5038231;28;20017;-45
2021/09/21 04:05:12;;;;;;;4.05;3.65;;;;;;;14.54;69.14;101824.41;5068408;28;20577;-45
2021/09/21 04:07:38;;;;;;;4.70;4.03;;;;;;;14.49;69.30;101820.03;5040868;28;20027;-45
2021/09/21 04:10:05;;;;;;;4.28;3.88;;;;;;;14.50;69.37;101826.19;5073444;28;20042;-45
2021/09/21 04:12:32;;;;;;;4.45;4.00;;;;;;;14.48;69.31;101825.34;5068545;28;20389;-44
2021/09/21 04:14:58;;;;;;;3.75;3.45;;;;;;;14.48;69.20;101820.88;5072543;28;20585;-45
2021/09/21 04:17:24;;;;;;;5.45;4.07;;;;;;;14.49;69.41;101821.78;5040948;28;20119;-44
2021/09/21 04:19:49;;;;;;;5.53;4.10;;;;;;;14.50;69.28;101828.84;5056175;28;20024;-44
2021/09/21 04:22:15;;;;;;;4.93;4.20;;;;;;;14.48;69.39;101820.88;5071538;28;20032;-44
2021/09/21 04:24:41;;;;;;;3.92;3.30;;;;;;;14.47;69.38;101828.84;5071892;28;20036;-45
2021/09/21 04:27:08;;;;;;;4.70;4.30;;;;;;;14.46;69.32;101828.00;5073169;28;20443;-45
2021/09/21 04:29:34;;;;;;;4.70;4.20;;;;;;;14.48;69.38;101830.63;5070025;28;20021;-44
2021/09/21 04:32:02;;;;;;;4.53;4.10;;;;;;;14.47;69.44;101827.09;5070504;28;20082;-44
2021/09/21 04:34:30;;;;;;;4.28;3.88;;;;;;;14.47;69.32;101827.09;5071511;28;20052;-45
2021/09/21 04:36:57;;;;;;;3.83;3.47;;;;;;;14.46;69.45;101825.34;5071853;28;20020;-45
2021/09/21 04:39:23;;;;;;;5.70;4.10;;;;;;;14.45;69.52;101831.56;5071747;28;20020;-45
2021/09/21 04:41:49;;;;;;;4.68;4.20;;;;;;;14.45;69.26;101833.31;5072728;28;20020;-45
2021/09/21 04:44:15;;;;;;;5.45;4.10;;;;;;;14.44;69.45;101840.38;5072338;28;20123;-44
2021/09/21 04:46:41;;;;;;;4.57;4.18;;;;;;;14.46;69.39;101835.97;5071176;28;20021;-44
2021/09/21 04:49:08;;;;;;;4.35;3.83;;;;;;;14.43;69.43;101835.97;5072398;28;20552;-44
2021/09/21 04:51:34;;;;;;;4.00;3.60;;;;;;;14.45;69.48;101830.66;5057824;28;20024;-45
2021/09/21 04:54:00;;;;;;;4.43;4.03;;;;;;;14.42;69.41;101830.69;5054319;28;20481;-45
2021/09/21 04:56:26;;;;;;;4.63;3.85;;;;;;;14.44;69.29;101829.75;5057916;28;20021;-45
2021/09/21 04:58:53;;;;;;;4.20;3.80;;;;;;;14.45;69.29;101841.28;5039999;28;20021;-44
2021/09/21 05:01:18;;;;;;;4.13;3.72;;;;;;;14.42;69.55;101850.16;5072248;28;20017;-45
2021/09/21 05:03:44;;;;;;;4.47;3.55;;;;;;;14.41;69.38;101856.34;5054794;28;20067;-44
2021/09/21 05:06:10;;;;;;;4.15;3.63;;;;;;;14.40;69.39;101867.84;5055249;28;20025;-45
2021/09/21 05:08:35;;;;;;;4.07;3.78;;;;;;;14.41;69.47;101866.06;5056364;28;20020;-44
2021/09/21 05:11:01;;;;;;;4.63;3.90;;;;;;;14.40;69.57;101870.50;5068945;28;20095;-44
2021/09/21 05:13:27;;;;;;;4.60;4.10;;;;;;;14.40;69.44;101877.59;5058074;28;20025;-44
2021/09/21 05:15:53;;;;;;;3.33;3.03;;;;;;;14.42;69.37;101881.09;5068680;28;20086;-45
2021/09/21 05:18:18;;;;;;;4.32;3.92;;;;;;;14.42;69.73;101878.44;5067782;28;20035;-45
2021/09/21 05:20:44;;;;;;;4.10;3.70;;;;;;;14.42;69.24;101882.00;5058392;28;20028;-45
2021/09/21 05:23:13;;;;;;;3.97;3.63;;;;;;;14.40;69.40;101886.41;5053182;28;20027;-44
2021/09/21 05:25:39;;;;;;;4.20;3.80;;;;;;;14.39;69.51;101889.97;5034426;28;20698;-44
2021/09/21 05:28:05;;;;;;;4.15;3.85;;;;;;;14.40;69.36;101889.06;5067908;28;20103;-44
2021/09/21 05:30:31;;;;;;;4.20;3.80;;;;;;;14.37;69.38;101886.44;5071766;28;20471;-44
2021/09/21 05:32:57;;;;;;;3.80;3.50;;;;;;;14.37;69.38;101889.97;5071590;28;20078;-44
2021/09/21 05:35:23;;;;;;;4.07;3.78;;;;;;;14.39;69.46;101899.69;5072243;28;20478;-45
2021/09/21 05:37:49;;;;;;;4.25;3.80;;;;;;;14.39;69.51;101905.00;5056159;28;20031;-45
2021/09/21 05:40:16;;;;;;;4.22;3.67;;;;;;;14.37;69.44;101902.34;5055863;28;20039;-44
2021/09/21 05:42:44;;;;;;;4.45;3.80;;;;;;;14.37;69.47;101895.28;5058567;28;20016;-44
2021/09/21 05:45:10;;;;;;;3.67;3.35;;;;;;;14.35;69.45;101891.78;5054915;28;20032;-44
2021/09/21 05:47:39;;;;;;;4.40;3.75;;;;;;;14.35;69.48;101893.53;5051694;28;20047;-45
2021/09/21 05:50:06;;;;;;;4.32;3.47;;;;;;;14.35;69.61;101894.44;5052166;28;20027;-44
2021/09/21 05:52:32;;;;;;;5.47;4.68;;;;;;;14.36;69.58;101904.16;5036487;28;20035;-45
2021/09/21 05:54:58;;;;;;;4.20;3.75;;;;;;;14.36;69.61;101911.22;5070027;28;20028;-44
2021/09/21 05:57:23;;;;;;;4.18;3.75;;;;;;;14.36;69.45;101904.16;5057428;28;20029;-45
2021/09/21 05:59:49;;;;;;;4.88;4.10;;;;;;;14.35;69.53;101917.41;5066824;28;20756;-44
2021/09/21 06:02:15;;;;;;;3.60;3.30;;;;;;;14.37;69.48;101912.97;5068264;28;20016;-44
2021/09/21 06:04:41;;;;;;;4.70;4.20;;;;;;;14.37;69.63;101912.97;5070716;28;20127;-45
2021/09/21 06:07:07;;;;;;;3.75;3.45;;;;;;;14.35;69.57;101920.97;5069501;28;20032;-45
2021/09/21 06:09:32;;;;;;;4.00;3.70;;;;;;;14.36;69.55;101929.78;5054860;28;20024;-44
2021/09/21 06:11:58;;;;;;;4.28;3.88;;;;;;;14.36;69.55;101935.09;5071048;28;20039;-44
2021/09/21 06:14:24;;;;;;;4.13;3.72;;;;;;;14.35;69.55;101928.94;5066027;28;20568;-44
2021/09/21 06:16:50;;;;;;;5.45;3.40;;;;;;;14.37;69.59;101939.50;5038062;28;20024;-44
2021/09/21 06:19:16;;;;;;;4.22;3.83;;;;;;;14.35;69.64;101936.88;5070181;28;20025;-44
2021/09/21 06:21:42;;;;;;;4.20;3.80;;;;;;;14.35;69.73;101930.69;5045370;28;20446;-44
2021/09/21 06:24:07;;;;;;;3.67;3.35;;;;;;;14.37;69.36;101935.09;5064176;28;21306;-44
2021/09/21 06:26:33;;;;;;;4.22;3.83;;;;;;;14.37;69.49;101934.19;5067826;28;20062;-44
2021/09/21 06:29:00;;;;;;;4.32;3.72;;;;;;;14.32;69.60;101930.69;5063292;28;20430;-45
2021/09/21 06:31:26;;;;;;;3.88;3.20;;;;;;;14.33;69.60;101933.34;5067769;28;20019;-44
2021/09/21 06:33:52;;;;;;;5.38;3.50;;;;;;;14.33;69.79;101937.75;5070647;28;20020;-45
2021/09/21 06:36:18;;;;;;;5.40;3.78;;;;;;;14.33;69.63;101943.06;5070425;28;20099;-45
2021/09/21 06:38:44;;;;;;;4.30;3.50;;;;;;;14.34;69.63;101940.41;5069128;28;20059;-44
2021/09/21 06:41:11;;;;;;;4.15;3.45;;;;;;;14.33;69.54;101956.34;5070089;28;20048;-44
2021/09/21 06:43:37;;;;;;;4.38;3.90;;;;;;;14.30;69.56;101951.06;5069996;28;20158;-44
2021/09/21 06:46:03;;;;;;;3.95;3.47;;;;;;;14.31;69.64;101961.66;5068117;28;20562;-45
2021/09/21 06:48:29;;;;;;;4.00;3.30;;;;;;;14.30;69.67;101959.88;5052539;28;20020;-44
2021/09/21 06:50:55;;;;;;;4.00;3.65;;;;;;;14.32;69.63;101955.47;5066042;28;20094;-44
2021/09/21 06:53:21;;;;;;;4.95;4.15;;;;;;;14.32;69.64;101955.47;5069117;28;20036;-44
2021/09/21 06:55:47;;;;;;;4.53;3.88;;;;;;;14.32;69.57;101959.88;5069994;28;20484;-45
2021/09/21 06:58:13;;;;;;;5.78;4.50;;;;;;;14.31;69.66;101966.94;5068835;28;20048;-44
2021/09/21 07:00:40;;;;;;;4.63;4.22;;;;;;;14.34;69.57;101971.41;5067597;28;20028;-45
2021/09/21 07:03:07;;;;;;;5.38;4.53;;;;;;;14.31;69.68;101969.59;5068762;28;20024;-45
2021/09/21 07:05:33;;;;;;;4.95;3.50;;;;;;;14.33;69.52;101959.88;5068078;28;20183;-45
2021/09/21 07:07:59;;;;;;;4.22;3.83;;;;;;;14.29;69.58;101959.88;5069201;28;20052;-44
2021/09/21 07:10:25;;;;;;;4.03;3.53;;;;;;;14.30;69.78;101965.19;5068340;28;20055;-44
2021/09/21 07:12:51;;;;;;;6.18;4.13;;;;;;;14.31;69.69;101971.41;5063371;28;20535;-45
2021/09/21 07:15:21;;;;;;;4.70;3.80;;;;;;;14.29;69.78;101978.47;5064809;28;20021;-45
2021/09/21 07:17:47;;;;;;;4.88;4.38;;;;;;;14.27;69.61;101981.13;5068940;28;20052;-45
2021/09/21 07:20:13;;;;;;;4.82;4.35;;;;;;;14.28;69.87;101984.66;5063254;28;20056;-44
2021/09/21 07:22:39;;;;;;;5.65;3.95;;;;;;;14.29;69.56;101991.72;5066947;28;20028;-45
2021/09/21 07:25:06;;;;;;;4.70;3.88;;;;;;;14.27;69.76;101982.91;5062180;28;20413;-45
2021/09/21 07:27:32;;;;;;;4.57;4.18;;;;;;;14.29;69.59;101989.09;5069914;28;20048;-45
2021/09/21 07:29:58;;;;;;;4.13;3.72;;;;;;;14.29;69.56;101995.28;5067916;28;20669;-45
2021/09/21 07:32:24;;;;;;;4.85;3.90;;;;;;;14.30;69.71;101998.84;5066999;28;20063;-45
2021/09/21 07:34:51;;;;;;;4.35;3.95;;;;;;;14.27;69.81;101991.75;5069323;28;20028;-45
2021/09/21 07:37:17;;;;;;;4.95;4.07;;;;;;;14.26;69.70;101992.63;5066624;28;20434;-45
2021/09/21 07:39:43;;;;;;;4.90;4.40;;;;;;;14.28;69.66;101989.97;5055894;28;20661;-45
2021/09/21 07:42:09;;;;;;;5.20;4.68;;;;;;;14.27;69.72;101996.19;5071084;28;20038;-44
2021/09/21 07:44:35;;;;;;;4.55;3.90;;;;;;;14.27;69.72;101990.88;5068743;28;20111;-44
2021/09/21 07:47:01;;;;;;;4.18;3.60;;;;;;;14.26;69.87;101994.41;5070210;28;20111;-45
2021/09/21 07:49:26;;;;;;;4.53;4.13;;;;;;;14.24;69.94;101997.94;5066848;28;20513;-45
2021/09/21 07:51:52;;;;;;;7.47;4.68;;;;;;;14.26;69.80;102011.22;5069845;28;20509;-45
2021/09/21 07:54:18;;;;;;;4.35;3.88;;;;;;;14.27;69.74;102012.97;5070977;28;20131;-45
2021/09/21 07:56:44;;;;;;;4.63;4.10;;;;;;;14.24;69.87;102016.53;5073189;28;20425;-45
2021/09/21 07:59:10;;;;;;;4.75;4.35;;;;;;;14.27;69.71;102025.38;5072697;28;20032;-45
2021/09/21 08:01:37;;;;;;;5.45;4.40;;;;;;;14.28;69.78;102019.16;5073423;28;20035;-44
2021/09/21 08:04:03;;;;;;;5.57;4.60;;;;;;;14.27;69.65;102017.41;5070919;28;20078;-44
2021/09/21 08:06:29;;;;;;;5.07;4.40;;;;;;;14.26;69.76;102020.94;5067452;28;20024;-45
2021/09/21 08:08:55;;;;;;;5.40;4.57;;;;;;;14.27;69.75;102023.59;5070311;28;20502;-45
2021/09/21 08:11:21;;;;;;;5.53;4.30;;;;;;;14.25;69.84;102028.03;5070613;28;20386;-44
2021/09/21 08:13:47;;;;;;;4.80;4.28;;;;;;;14.26;69.81;102032.44;5071934;28;20115;-45
2021/09/21 08:16:14;;;;;;;7.13;4.68;;;;;;;14.27;69.92;102051.91;5054444;28;20474;-45
2021/09/21 08:18:40;;;;;;;4.88;4.10;;;;;;;14.26;69.86;102045.72;5070279;28;20060;-44
2021/09/21 08:21:06;;;;;;;5.20;4.43;;;;;;;14.26;69.93;102047.47;5070444;28;20154;-45
2021/09/21 08:23:32;;;;;;;5.53;4.60;;;;;;;14.28;69.87;102051.91;5054930;28;20062;-45
2021/09/21 08:25:58;;;;;;;6.80;5.45;;;;;;;14.27;70.02;102050.13;5070366;28;20029;-45
2021/09/21 08:28:23;;;;;;;6.32;4.85;;;;;;;14.24;69.96;102051.00;5067890;28;20028;-45
2021/09/21 08:30:49;;;;;;;5.63;4.53;;;;;;;14.25;69.84;102049.25;5071070;28;20024;-44
2021/09/21 08:33:15;;;;;;;5.40;4.53;;;;;;;14.23;69.83;102057.22;5072400;28;20144;-44
2021/09/21 08:35:41;;;;;;;5.95;4.65;;;;;;;14.23;69.79;102048.38;5070983;28;20023;-44
2021/09/21 08:38:07;;;;;;;5.18;4.68;;;;;;;14.24;69.93;102051.00;5072234;28;20028;-44
2021/09/21 08:40:33;;;;;;;5.85;4.53;;;;;;;14.24;69.94;102058.13;5053521;28;20025;-45
2021/09/21 08:42:59;;;;;;;5.18;3.92;;;;;;;14.27;69.83;102054.56;5070241;28;20024;-45
2021/09/21 08:45:27;;;;;;;5.00;4.53;;;;;;;14.24;69.88;102056.31;5068300;28;20103;-45
2021/09/21 08:47:53;;;;;;;5.80;4.78;;;;;;;14.27;70.03;102065.19;5071942;28;20400;-44
2021/09/21 08:50:19;;;;;;;4.85;4.35;;;;;;;14.24;69.85;102066.94;5070541;28;20022;-44
2021/09/21 08:52:45;;;;;;;6.75;4.82;;;;;;;14.27;69.91;102054.56;5069641;28;20020;-44
2021/09/21 08:55:12;;;;;;;4.65;4.13;;;;;;;14.27;69.86;102049.25;5068053;28;20025;-45
2021/09/21 08:57:39;;;;;;;6.15;5.00;;;;;;;14.25;69.83;102051.91;5071943;28;20125;-44
2021/09/21 09:00:09;;;;;;;5.80;4.93;;;;;;;14.27;69.90;102054.56;5069689;28;20394;-44
2021/09/21 09:02:35;;;;;;;5.53;5.03;;;;;;;14.28;69.98;102059.88;5050849;28;20028;-44
2021/09/21 09:05:07;;;;;;;5.28;4.75;;;;;;;14.26;70.13;102060.72;5071746;28;20032;-44
2021/09/21 09:07:50;;;;;;;5.43;4.25;;;;;;;14.26;69.96;102066.94;5071993;28;20032;-44
2021/09/21 09:10:16;;;;;;;6.35;4.85;;;;;;;14.28;69.94;102061.63;5071347;28;20020;-44
2021/09/21 09:12:42;;;;;;;6.47;4.45;;;;;;;14.27;69.82;102057.22;5070777;28;20027;-44
2021/09/21 09:15:16;;;;;;;5.70;4.75;;;;;;;14.29;69.70;102060.72;5071362;28;20028;-44
2021/09/21 09:18:03;;;;;;;4.95;4.25;;;;;;;14.26;69.79;102058.06;5051598;28;20702;-44
2021/09/21 09:20:32;;;;;;;5.43;4.38;;;;;;;14.28;69.87;102045.72;5071307;28;20131;-44
2021/09/21 09:22:58;;;;;;;5.30;4.57;;;;;;;14.27;69.76;102049.25;5064191;28;20036;-44
2021/09/21 09:25:24;;;;;;;6.85;4.63;;;;;;;14.28;69.84;102049.25;5052706;28;20118;-44
2021/09/21 09:27:51;;;;;;;5.30;4.80;;;;;;;14.26;69.76;102050.13;5069451;28;20032;-44
2021/09/21 09:30:22;;;;;;;5.85;5.25;;;;;;;14.26;69.90;102053.66;5069344;28;20081;-44
2021/09/21 09:33:00;;;;;;;6.00;4.82;;;;;;;14.26;69.66;102042.16;5064996;28;20032;-44
2021/09/21 09:35:27;;;;;;;7.53;4.38;;;;;;;14.28;69.84;102040.41;5068319;28;20032;-44
2021/09/21 09:37:54;;;;;;;5.32;4.75;;;;;;;14.26;69.79;102044.81;5070911;28;20081;-45
2021/09/21 09:40:20;;;;;;;7.43;4.30;;;;;;;14.29;69.82;102042.16;5070415;28;20024;-44
2021/09/21 09:42:48;;;;;;;5.70;4.72;;;;;;;14.28;69.75;102032.44;5071452;28;20025;-45
2021/09/21 09:45:26;;;;;;;6.63;4.25;;;;;;;14.28;69.79;102028.03;5069081;28;20032;-44
2021/09/21 09:47:53;;;;;;;5.93;4.60;;;;;;;14.27;69.69;102017.41;5068790;28;20436;-44
2021/09/21 09:50:25;;;;;;;6.07;5.10;;;;;;;14.28;69.79;102027.13;5070753;28;20489;-44
2021/09/21 09:53:01;;;;;;;4.82;4.35;;;;;;;14.29;69.91;102026.22;5068893;28;20028;-44
2021/09/21 09:55:27;;;;;;;6.05;5.13;;;;;;;14.28;69.79;102025.38;5054438;28;20029;-44
2021/09/21 09:57:53;;;;;;;5.60;5.05;;;;;;;14.28;69.87;102030.69;5048034;28;20032;-44
2021/09/21 10:00:19;;;;;;;4.93;4.43;;;;;;;14.28;69.81;102045.72;5051184;28;20056;-44
2021/09/21 10:02:45;;;;;;;6.18;4.70;;;;;;;14.30;69.95;102046.59;5070356;28;20025;-44
2021/09/21 10:05:11;;;;;;;4.78;4.22;;;;;;;14.31;69.86;102041.25;5068818;28;20028;-44
2021/09/21 10:07:37;;;;;;;7.05;5.10;;;;;;;14.29;69.87;102044.81;5069470;28;20042;-44
2021/09/21 10:10:03;;;;;;;6.65;5.18;;;;;;;14.29;69.82;102036.84;5051676;28;20810;-45
2021/09/21 10:12:29;;;;;;;4.43;3.90;;;;;;;14.30;69.72;102033.34;5070125;28;20025;-45
2021/09/21 10:14:55;;;;;;;4.97;4.55;;;;;;;14.31;69.73;102040.41;5068248;28;20417;-44
2021/09/21 10:17:25;;;;;;;6.75;4.97;;;;;;;14.33;69.66;102043.91;5055348;28;20054;-44
2021/09/21 10:19:55;;;;;;;5.53;4.27;;;;;;;14.32;69.74;102034.19;5068758;28;20402;-44
2021/09/21 10:22:31;;;;;;;5.13;4.60;;;;;;;14.31;69.66;102029.78;5070390;28;20066;-44
2021/09/21 10:25:08;;;;;;;7.30;4.35;;;;;;;14.27;69.78;102028.03;5051642;28;20028;-44
2021/09/21 10:27:38;;;;;;;4.45;4.03;;;;;;;14.29;69.68;102027.13;5063994;28;20026;-44
2021/09/21 10:30:09;;;;;;;6.53;5.15;;;;;;;14.29;69.59;102027.13;5070437;28;20140;-44
2021/09/21 10:32:41;;;;;;;;;;;;;;;14.34;69.43;102032.44;5069773;28;20031;-44
2021/09/21 10:35:12;;;;;;;5.28;4.40;;;;;;;14.35;69.25;102034.19;5069325;28;19981;-44
2021/09/21 10:37:38;;;;;;;5.47;4.40;;;;;;;14.36;69.27;102038.59;5065188;28;20029;-44
2021/09/21 10:40:06;;;;;;;6.20;4.63;;;;;;;14.35;69.06;102031.53;5065726;28;20093;-45
2021/09/21 10:42:32;;;;;;;5.65;4.50;;;;;;;14.33;69.17;102034.19;5066390;28;20028;-45
2021/09/21 10:45:01;;;;;;;5.18;4.57;;;;;;;14.35;69.35;102042.16;5064844;28;20025;-45
2021/09/21 10:47:29;;;;;;;5.18;4.38;;;;;;;14.36;69.27;102038.59;5069187;28;20102;-44
2021/09/21 10:50:12;;;;;;;4.90;4.35;;;;;;;14.38;69.19;102034.19;5069932;28;20020;-44
2021/09/21 10:52:39;;;;;;;4.65;4.15;;;;;;;14.35;69.14;102036.84;5067718;28;20099;-44
2021/09/21 10:55:08;;;;;;;5.95;4.35;;;;;;;14.35;69.28;102037.75;5067222;28;20070;-45
2021/09/21 10:57:40;;;;;;;5.00;4.45;;;;;;;14.37;69.03;102037.69;5049433;28;20028;-44
2021/09/21 11:00:10;;;;;;;4.70;3.92;;;;;;;14.41;69.07;102036.84;5066661;28;20499;-44
2021/09/21 11:02:51;;;;;;;4.60;3.97;;;;;;;14.37;68.74;102035.06;5068795;28;20031;-44
2021/09/21 11:05:20;;;;;;;4.90;4.18;;;;;;;14.32;68.96;102042.16;5068462;28;20029;-45
2021/09/21 11:07:53;;;;;;;5.32;4.45;;;;;;;14.31;68.89;102037.75;5067907;28;20036;-44
2021/09/21 11:10:20;;;;;;;4.15;3.75;;;;;;;14.36;68.46;102046.56;5064613;28;20479;-44
2021/09/21 11:12:47;;;;;;;5.07;4.22;;;;;;;14.34;68.55;102051.00;5068307;28;20059;-43
2021/09/21 11:15:14;;;;;;;4.93;3.80;;;;;;;14.35;68.61;102042.16;5067749;28;20033;-44
2021/09/21 11:17:40;;;;;;;4.57;4.15;;;;;;;14.33;68.44;102035.94;5061361;28;20040;-43
2021/09/21 11:20:07;;;;;;;5.00;4.38;;;;;;;14.34;68.39;102030.63;5050795;28;20487;-45
2021/09/21 11:22:36;;;;;;;5.15;4.18;;;;;;;14.34;68.08;102024.47;5066756;28;20039;-44
2021/09/21 11:25:12;;;;;;;4.30;3.67;;;;;;;14.35;68.15;102028.88;5061405;28;20036;-44
2021/09/21 11:27:39;;;;;;;4.57;4.10;;;;;;;14.36;68.14;102030.63;5049890;28;20052;-44
2021/09/21 11:30:08;;;;;;;4.97;3.80;;;;;;;14.37;68.16;102041.25;5046082;28;20111;-43
2021/09/21 11:32:35;;;;;;;4.30;3.90;;;;;;;14.36;68.39;102044.81;5063342;28;20082;-45
2021/09/21 11:35:03;;;;;;;4.68;4.07;;;;;;;14.36;68.44;102039.50;5065258;28;20461;-44